createdAt,value
2023-05-10T00:00:19.953Z,97233.69
2023-05-10T00:03:23.980Z,97234.91
2023-05-10T00:06:28.023Z,97234.38
2023-05-10T00:09:32.137Z,97232.56
2023-05-10T00:12:36.020Z,97236.06
2023-05-10T00:15:39.819Z,97234.38
2023-05-10T00:18:43.856Z,97224.53
2023-05-10T00:21:47.992Z,97231.72
2023-05-10T00:24:52.095Z,97236.00
2023-05-10T00:27:55.957Z,97226.25
2023-05-10T00:30:59.832Z,97231.22
2023-05-10T00:34:03.942Z,97237.56
2023-05-10T00:37:08.061Z,97230.94
2023-05-10T00:40:11.930Z,97223.00
2023-05-10T00:43:15.994Z,97222.47
2023-05-10T00:46:20.025Z,97223.75
2023-05-10T00:49:24.092Z,97218.91
2023-05-10T00:52:28.017Z,97230.69
2023-05-10T00:55:31.908Z,97230.69
2023-05-10T00:58:35.957Z,97238.53
2023-05-10T01:01:40.114Z,97232.47
2023-05-10T01:04:44.288Z,97231.09
2023-05-10T01:07:48.341Z,97228.72
2023-05-10T01:10:52.386Z,97228.44
2023-05-10T01:13:56.551Z,97226.31
2023-05-10T01:17:00.392Z,97227.03
2023-05-10T01:20:04.509Z,97226.09
2023-05-10T01:23:08.515Z,97234.34
2023-05-10T01:26:12.540Z,97232.47
2023-05-10T01:29:16.468Z,97226.44
2023-05-10T01:32:20.614Z,97226.09
2023-05-10T01:35:24.670Z,97230.91
2023-05-10T01:38:28.591Z,97232.16
2023-05-10T01:41:32.493Z,97227.44
2023-05-10T01:44:36.638Z,97233.78
2023-05-10T01:47:40.773Z,97231.75
2023-05-10T01:50:44.572Z,97237.28
2023-05-10T01:53:48.573Z,97239.69
2023-05-10T01:56:52.395Z,97238.63
2023-05-10T01:59:56.583Z,97237.19
2023-05-10T02:03:00.795Z,97235.84
2023-05-10T02:06:04.814Z,97236.34
2023-05-10T02:09:08.860Z,97239.59
2023-05-10T02:12:12.992Z,97235.56
2023-05-10T02:15:17.010Z,97238.91
2023-05-10T02:18:20.947Z,97240.56
2023-05-10T02:21:24.969Z,97239.72
2023-05-10T02:24:28.908Z,97237.41
2023-05-10T02:27:33.298Z,97239.50
2023-05-10T02:30:37.298Z,97243.41
2023-05-10T02:33:42.185Z,97241.09
2023-05-10T02:36:46.014Z,97245.34
2023-05-10T02:39:50.185Z,97253.47
2023-05-10T02:46:17.204Z,97253.25
2023-05-10T02:49:21.645Z,97264.16
2023-05-10T02:52:25.392Z,97267.47
2023-05-10T02:55:29.320Z,97272.06
2023-05-10T02:58:33.276Z,97269.19
2023-05-10T03:01:37.373Z,97277.69
2023-05-10T03:04:41.432Z,97277.94
2023-05-10T03:07:45.245Z,97284.06
2023-05-10T03:10:49.150Z,97286.75
2023-05-10T03:13:55.470Z,97287.22
2023-05-10T03:16:59.527Z,97293.63
2023-05-10T03:20:04.375Z,97287.78
2023-05-10T03:23:08.275Z,97289.66
2023-05-10T03:26:12.480Z,97282.56
2023-05-10T03:29:16.914Z,97282.03
2023-05-10T03:32:20.968Z,97288.66
2023-05-10T03:35:24.765Z,97288.28
2023-05-10T03:38:30.529Z,97294.72
2023-05-10T03:41:34.980Z,97301.78
2023-05-10T03:44:38.953Z,97302.28
2023-05-10T03:47:42.980Z,97297.97
2023-05-10T03:50:46.816Z,97305.63
2023-05-10T03:53:55.266Z,97308.47
2023-05-10T03:56:59.562Z,97304.22
2023-05-10T04:00:03.315Z,97313.00
2023-05-10T04:03:07.477Z,97312.88
2023-05-10T04:06:11.345Z,97308.31
2023-05-10T04:09:15.201Z,97309.31
2023-05-10T04:12:19.195Z,97306.56
2023-05-10T04:15:23.609Z,97314.59
2023-05-10T04:27:38.551Z,97305.44
2023-05-10T06:33:48.464Z,97318.59
2023-05-10T07:14:46.448Z,97333.19
2023-05-10T07:17:50.658Z,97340.09
2023-05-10T07:21:04.734Z,97341.97
2023-05-10T07:24:08.885Z,97344.09
2023-05-10T07:27:17.088Z,97341.41
2023-05-10T07:30:24.640Z,97352.03
2023-05-10T07:33:28.805Z,97348.84
2023-05-10T07:40:01.335Z,97358.97
2023-05-10T07:46:39.598Z,97357.06
2023-05-10T07:49:47.188Z,97357.13
2023-05-10T07:56:18.557Z,97363.75
2023-05-10T07:59:28.870Z,97365.50
2023-05-10T08:02:39.967Z,97364.41
2023-05-10T08:05:54.824Z,97364.88
2023-05-10T08:08:59.974Z,97370.00
2023-05-10T08:12:05.564Z,97362.66
2023-05-10T08:15:33.827Z,97367.94
2023-05-10T08:22:09.108Z,97365.25
2023-05-10T08:28:49.406Z,97360.03
2023-05-10T08:35:27.307Z,97365.59
2023-05-10T08:38:53.694Z,97361.13
2023-05-10T08:42:18.856Z,97368.00
2023-05-10T08:45:26.328Z,97365.31
2023-05-10T08:48:30.779Z,97367.63
2023-05-10T08:51:43.804Z,97379.88
2023-05-10T09:00:46.819Z,97385.00
2023-05-10T09:08:55.399Z,97385.59
2023-05-10T09:16:21.579Z,97392.78
2023-05-10T09:19:01.358Z,97392.53
2023-05-10T09:22:09.085Z,97393.38
2023-05-10T09:39:15.799Z,97385.66
2023-05-10T09:53:00.469Z,97391.31
2023-05-10T09:58:45.785Z,97390.78
2023-05-10T10:01:50.641Z,97396.44
2023-05-10T10:04:54.743Z,97393.16
2023-05-10T10:07:59.339Z,97398.13
2023-05-10T10:11:03.292Z,97394.09
2023-05-10T10:14:07.582Z,97390.41
2023-05-10T10:17:11.461Z,97395.03
2023-05-10T10:20:15.849Z,97382.00
2023-05-10T10:23:21.138Z,97383.81
2023-05-10T10:26:25.245Z,97381.75
2023-05-10T10:29:29.452Z,97382.56
2023-05-10T10:32:34.354Z,97393.44
2023-05-10T10:35:38.419Z,97386.78
2023-05-10T10:38:42.839Z,97386.84
2023-05-10T10:41:46.795Z,97382.59
2023-05-10T10:44:52.419Z,97381.03
2023-05-10T10:47:57.942Z,97381.44
2023-05-10T10:51:01.824Z,97382.50
2023-05-10T10:54:06.182Z,97384.88
2023-05-10T10:57:09.979Z,97378.13
2023-05-10T11:00:14.071Z,97378.34
2023-05-10T11:03:18.274Z,97377.28
2023-05-10T11:06:22.170Z,97375.38
2023-05-10T11:09:26.342Z,97373.44
2023-05-10T11:12:30.268Z,97375.38
2023-05-10T11:15:34.056Z,97378.72
2023-05-10T11:18:38.555Z,97372.31
2023-05-10T11:21:45.625Z,97371.91
2023-05-10T11:24:50.247Z,97373.13
2023-05-10T11:31:18.885Z,97366.19
2023-05-10T11:34:23.323Z,97369.13
2023-05-10T11:37:30.610Z,97371.41
2023-05-10T11:40:36.604Z,97372.31
2023-05-10T11:43:47.778Z,97377.22
2023-05-10T11:49:59.917Z,97380.94
2023-05-10T11:53:09.468Z,97365.44
2023-05-10T11:56:13.611Z,97366.91
2023-05-10T12:02:52.289Z,97365.75
2023-05-10T12:06:02.437Z,97366.28
2023-05-10T12:09:06.674Z,97372.03
2023-05-10T12:15:19.250Z,97369.13
2023-05-10T12:18:23.344Z,97369.03
2023-05-10T12:21:28.343Z,97365.47
2023-05-10T12:24:33.279Z,97371.22
2023-05-10T13:00:57.830Z,97378.50
2023-05-10T13:04:03.802Z,97383.88
2023-05-10T13:10:33.215Z,97379.38
2023-05-10T13:13:37.720Z,97381.78
2023-05-10T13:16:45.707Z,97378.41
2023-05-10T13:19:51.077Z,97371.00
2023-05-10T13:23:21.041Z,97375.50
2023-05-10T13:26:24.837Z,97382.44
2023-05-10T13:29:30.643Z,97379.28
2023-05-10T13:32:51.893Z,97381.72
2023-05-10T13:36:08.528Z,97384.38
2023-05-10T13:39:16.552Z,97380.41
2023-05-10T13:42:20.865Z,97374.59
2023-05-10T13:45:25.568Z,97377.31
2023-05-10T13:48:32.921Z,97376.25
2023-05-10T13:51:55.806Z,97375.09
2023-05-10T13:55:29.546Z,97375.19
2023-05-10T14:02:05.366Z,97365.03
2023-05-10T14:08:34.426Z,97366.22
2023-05-10T14:11:39.575Z,97369.47
2023-05-10T14:25:46.063Z,97358.88
2023-05-10T14:32:16.874Z,97371.03
2023-05-10T14:38:41.184Z,97363.31
2023-05-10T14:41:46.438Z,97369.47
2023-05-10T14:44:52.207Z,97367.50
2023-05-10T14:47:56.684Z,97363.03
2023-05-10T14:51:23.862Z,97366.81
2023-05-10T14:54:29.140Z,97364.13
2023-05-10T14:57:36.136Z,97357.47
2023-05-10T15:00:41.624Z,97361.13
2023-05-10T15:03:46.223Z,97365.03
2023-05-10T15:06:51.851Z,97363.19
2023-05-10T15:09:59.317Z,97369.81
2023-05-10T15:13:03.607Z,97374.31
2023-05-10T15:16:11.699Z,97373.44
2023-05-10T15:19:18.205Z,97374.75
2023-05-10T15:22:23.358Z,97378.16
2023-05-10T15:25:27.605Z,97380.06
2023-05-10T15:28:32.490Z,97375.13
2023-05-10T15:31:37.758Z,97367.78
2023-05-10T15:34:43.046Z,97375.72
2023-05-10T15:37:49.162Z,97369.56
2023-05-10T15:41:03.362Z,97376.75
2023-05-10T15:44:09.015Z,97364.34
2023-05-10T15:47:17.645Z,97372.41
2023-05-10T15:50:22.015Z,97377.66
2023-05-10T15:53:25.922Z,97378.94
2023-05-10T16:06:50.677Z,97378.50
2023-05-10T16:46:48.531Z,97385.53
2023-05-10T16:49:57.071Z,97385.75
2023-05-10T16:53:01.166Z,97385.19
2023-05-10T16:56:06.587Z,97388.44
2023-05-10T16:59:10.838Z,97380.47
2023-05-10T17:02:15.050Z,97388.69
2023-05-10T17:05:19.124Z,97390.03
2023-05-10T17:08:23.044Z,97382.22
2023-05-10T17:11:27.212Z,97384.13
2023-05-10T17:14:31.125Z,97388.94
2023-05-10T17:17:35.195Z,97390.44
2023-05-10T17:20:39.138Z,97387.31
2023-05-10T17:23:43.123Z,97387.91
2023-05-10T17:26:46.916Z,97381.50
2023-05-10T17:29:51.188Z,97381.44
2023-05-10T17:32:55.298Z,97379.16
2023-05-10T17:35:59.164Z,97369.69
2023-05-10T17:39:04.373Z,97370.63
2023-05-10T17:42:08.198Z,97371.97
2023-05-10T17:45:12.647Z,97375.66
2023-05-10T17:48:18.806Z,97371.44
2023-05-10T17:51:23.943Z,97379.13
2023-05-10T17:54:27.832Z,97375.09
2023-05-10T17:57:31.626Z,97381.69
2023-05-10T18:00:35.546Z,97376.94
2023-05-10T18:03:39.671Z,97388.44
2023-05-10T18:06:43.704Z,97390.28
2023-05-10T18:09:47.690Z,97386.75
2023-05-10T18:12:54.884Z,97394.50
2023-05-10T18:16:00.638Z,97395.59
2023-05-10T18:19:05.205Z,97390.56
2023-05-10T18:22:10.871Z,97393.97
2023-05-10T18:25:18.598Z,97396.91
2023-05-10T18:28:24.114Z,97401.63
2023-05-10T18:31:41.145Z,97393.94
2023-05-10T18:34:53.221Z,97397.91
2023-05-10T18:37:58.238Z,97400.56
2023-05-10T18:41:02.049Z,97402.94
2023-05-10T18:44:05.807Z,97401.31
2023-05-10T18:47:10.911Z,97408.31
2023-05-10T18:50:14.805Z,97410.63
2023-05-10T18:53:18.671Z,97412.25
2023-05-10T18:59:44.536Z,97407.22
2023-05-10T19:02:49.007Z,97408.09
2023-05-10T19:05:53.430Z,97402.78
2023-05-10T19:08:57.226Z,97411.03
2023-05-10T19:12:01.090Z,97410.72
2023-05-10T19:15:05.057Z,97416.94
2023-05-10T19:18:09.793Z,97407.59
2023-05-10T19:21:14.058Z,97414.63
2023-05-10T19:24:17.966Z,97416.22
2023-05-10T19:27:24.806Z,97410.63
2023-05-10T19:30:30.240Z,97419.97
2023-05-10T19:33:34.604Z,97429.63
2023-05-10T19:36:38.276Z,97427.53
2023-05-10T19:39:42.538Z,97426.31
2023-05-10T19:42:46.680Z,97430.63
2023-05-10T19:45:50.827Z,97428.84
2023-05-10T19:48:54.764Z,97423.81
2023-05-10T19:51:58.969Z,97426.34
2023-05-10T19:55:03.134Z,97430.25
2023-05-10T19:58:07.049Z,97437.31
2023-05-10T20:01:10.976Z,97438.41
2023-05-10T20:04:14.910Z,97441.13
2023-05-10T20:07:20.741Z,97433.13
2023-05-10T20:10:26.892Z,97435.78
2023-05-10T20:13:31.919Z,97437.44
2023-05-10T20:16:35.996Z,97433.06
2023-05-10T20:19:41.409Z,97443.53
2023-05-10T20:22:56.108Z,97438.56
2023-05-10T20:26:02.538Z,97432.94
2023-05-10T20:29:06.196Z,97437.25
2023-05-10T20:32:26.100Z,97440.38
2023-05-10T20:35:32.820Z,97437.81
2023-05-10T20:38:36.885Z,97428.97
2023-05-10T20:41:40.695Z,97444.16
2023-05-10T20:44:44.533Z,97430.47
2023-05-10T20:47:48.266Z,97441.19
2023-05-10T20:50:52.253Z,97440.69
2023-05-10T20:53:56.506Z,97440.75
2023-05-10T20:57:00.267Z,97448.53
2023-05-10T21:00:04.586Z,97441.47
2023-05-10T21:03:08.711Z,97437.69
2023-05-10T21:06:12.855Z,97442.16
2023-05-10T21:09:16.833Z,97446.78
2023-05-10T21:12:20.776Z,97444.75
2023-05-10T21:15:24.998Z,97445.56
2023-05-10T21:18:29.406Z,97443.59
2023-05-10T21:21:33.444Z,97445.69
2023-05-10T21:24:37.662Z,97441.97
2023-05-10T21:27:41.659Z,97443.19
2023-05-10T21:30:45.914Z,97444.59
2023-05-10T21:33:50.169Z,97431.19
2023-05-10T21:36:54.339Z,97435.16
2023-05-10T21:39:58.485Z,97433.56
2023-05-10T21:43:02.532Z,97432.81
2023-05-10T21:46:06.519Z,97432.47
2023-05-10T21:49:10.330Z,97431.47
2023-05-10T21:52:14.316Z,97433.06
2023-05-10T21:55:18.029Z,97433.78
2023-05-10T21:58:22.013Z,97440.13
2023-05-10T22:01:26.233Z,97427.47
2023-05-10T22:04:30.314Z,97433.44
2023-05-10T22:07:34.592Z,97430.44
2023-05-10T22:10:38.831Z,97436.13
2023-05-10T22:13:42.640Z,97420.63
2023-05-10T22:16:46.652Z,97421.06
2023-05-10T22:19:50.719Z,97427.19
2023-05-10T22:22:54.457Z,97423.97
2023-05-10T22:25:58.156Z,97421.34
2023-05-10T22:29:02.182Z,97417.88
2023-05-10T22:32:06.298Z,97415.34
2023-05-10T22:35:10.031Z,97415.50
2023-05-10T22:38:14.436Z,97416.19
2023-05-10T22:41:18.669Z,97427.88
2023-05-10T22:44:22.753Z,97425.47
2023-05-10T22:47:26.789Z,97418.09
2023-05-10T22:50:30.771Z,97421.44
2023-05-10T22:53:34.798Z,97418.34
2023-05-10T22:56:39.096Z,97422.16
2023-05-10T22:59:43.359Z,97417.03
2023-05-10T23:02:47.261Z,97426.09
2023-05-10T23:05:51.368Z,97417.00
2023-05-10T23:08:55.435Z,97419.28
2023-05-10T23:11:59.704Z,97418.25
2023-05-10T23:15:03.760Z,97417.22
2023-05-10T23:18:07.915Z,97420.16
2023-05-10T23:21:12.037Z,97417.78
2023-05-10T23:24:15.743Z,97411.94
2023-05-10T23:27:19.856Z,97410.59
2023-05-10T23:31:00.774Z,97416.03
2023-05-10T23:34:02.956Z,97416.03
2023-05-10T23:37:06.876Z,97407.00
2023-05-10T23:40:10.941Z,97404.66
2023-05-10T23:43:15.188Z,97399.94
2023-05-10T23:46:19.079Z,97408.56
2023-05-10T23:49:22.913Z,97407.75
2023-05-10T23:52:26.899Z,97410.84
2023-05-10T23:55:30.944Z,97394.59
2023-05-10T23:58:35.021Z,97392.44
